MDT,Max TemperatureF,Mean TemperatureF,Min TemperatureF,Max Dew PointF,MeanDew PointF,Min DewpointF,Max Humidity, Mean Humidity, Min Humidity, Max Sea Level PressureIn, Mean Sea Level PressureIn, Min Sea Level PressureIn, Max VisibilityMiles, Mean VisibilityMiles, Min VisibilityMiles, Max Wind SpeedMPH, Mean Wind SpeedMPH, Max Gust SpeedMPH,PrecipitationIn, CloudCover, Events, WindDirDegrees
2013-8-1,89,75,61,65,62,58,100,70,40,30.07,29.92,29.81,10,10,5,23,9,31,T,1,,77
2013-8-2,78,70,61,64,61,57,100,77,54,30.09,29.94,29.77,10,9,5,23,10,30,T,5,Rain,78
2013-8-3,82,70,58,63,60,57,93,72,51,30.21,30.09,29.99,10,8,1,22,13,30,0.85,8,Rain,116
2013-8-4,90,78,65,64,62,59,93,66,38,30.07,29.95,29.83,10,10,10,18,7,25,0.00,3,,151
2013-8-5,86,74,62,67,60,57,90,67,43,30.05,29.90,29.78,10,10,6,23,8,33,0.00,2,,57
2013-8-6,84,71,58,63,56,49,87,61,35,29.98,29.88,29.76,10,10,10,32,9,40,0.00,1,,73
2013-8-7,85,69,52,58,54,51,93,63,32,30.11,29.98,29.91,10,10,2,22,5,28,0.23,4,Rain,175
2013-8-8,81,67,52,59,56,51,100,71,42,30.04,30.00,29.95,10,10,10,14,5,21,0.00,0,,71
2013-8-9,82,70,57,62,57,53,97,71,45,30.14,30.07,30.01,10,10,10,18,7,23,T,2,,84
2013-8-10,89,75,60,65,58,54,93,61,29,30.12,30.03,29.93,10,10,10,16,6,22,0.01,2,Rain,264
2013-8-11,84,71,57,65,62,59,100,73,46,30.16,30.07,29.96,10,8,0,31,7,37,0.03,3,Fog-Rain,49
2013-8-12,88,70,51,63,57,49,100,67,34,30.08,30.04,30.00,10,10,10,14,5,20,0.00,0,,89
2013-8-13,86,72,58,61,57,50,97,66,34,30.17,30.09,30.00,10,8,0,35,9,45,0.97,4,Fog-Rain,73
2013-8-14,82,68,53,61,56,53,100,70,39,30.17,30.05,29.96,10,9,2,25,4,36,0.21,2,Rain,87
2013-8-15,82,68,54,62,58,54,93,68,43,30.08,30.01,29.95,10,10,9,20,5,26,0.00,1,,56
2013-8-16,85,71,57,63,60,56,100,70,40,30.12,30.03,29.97,10,9,5,16,6,23,0.00,1,,167
2013-8-17,89,76,63,66,63,61,93,68,43,30.06,29.94,29.87,10,9,5,21,12,29,0.00,0,,186
2013-8-18,86,75,64,69,66,63,93,74,55,30.01,29.93,29.87,10,8,4,16,7,24,0.00,2,,182
2013-8-19,91,74,56,63,59,55,97,66,34,29.95,29.89,29.81,10,10,8,13,5,23,0.00,0,,99
2013-8-20,97,81,64,67,61,57,79,54,29,29.84,29.79,29.73,10,10,9,16,6,24,T,0,,232
2013-8-21,77,66,55,67,59,54,93,70,47,30.06,29.95,29.81,10,10,9,18,5,24,T,3,Rain,45
2013-8-22,85,68,51,63,59,52,100,69,37,30.20,30.11,30.02,10,7,0,18,6,24,0.00,3,Fog,100
2013-8-23,91,78,65,65,63,59,93,65,36,30.11,29.92,29.75,10,10,7,21,9,29,0.00,2,,173
2013-8-24,97,80,62,62,55,48,84,52,20,29.83,29.80,29.76,10,10,10,17,5,22,0.00,0,,228
2013-8-25,97,77,57,63,57,52,87,55,22,29.94,29.89,29.85,10,10,10,15,5,20,0.00,0,,79
2013-8-26,99,80,61,61,54,46,90,54,17,29.92,29.87,29.82,10,10,9,20,6,31,0.00,0,,248
2013-8-27,100,80,60,59,55,52,78,50,21,29.93,29.87,29.81,10,10,6,10,4,17,0.00,1,,221
2013-8-28,92,80,67,73,66,58,93,69,44,30.07,29.94,29.87,10,9,2,21,5,30,0.28,3,Rain,305
2013-8-29,95,79,63,62,59,54,87,59,31,29.99,29.93,29.87,10,10,10,14,5,21,0.00,0,,347
2013-8-30,98,79,59,65,60,57,93,60,27,30.05,29.96,29.83,10,10,4,44,7,55,0.00,0,,134
2013-8-31,89,71,52,60,55,48,78,54,29,30.01,29.89,29.83,10,10,10,22,9,29,0.00,0,,337